Terminal Aerodrome Forecast
Issued by NWS Riverton, WY

Home | Current Version | Previous Version | Text Only | Print | Product List | Glossary On
Versions: 1 2 3 4 5 6 7 8 9 10 11 12 13 14 15
000
FTUS45 KRIW 250000 AAA
TAFRIW
TAF AMD
KRIW 250048Z 2501/2524 23010KT P6SM VCSH SCT100
      TEMPO 2501/2503 VRB20G30KT
     FM250300 VRB06KT P6SM SCT100
     FM251500 05009KT P6SM BKN100=

USA.gov is the U.S. government's official web portal to all federal, state and local government web resources and services.